HBPMC LSZF-LSZS
Flight info
| Callsign | HBPMC |
|---|---|
| Flight time | N/A |
| Altitude | 9800 |
| Route | EAST/MURI/BAAR/SCHWYZ/MUCHTATHAL/UNTERSCHAECHEN/KIESTENPASS/VALS/THUSIS/FIILISUR/ALBULA PASS/E |
| Aircraft | PA28/L-V/N |
Departure
| Time | 2026-05-05 15:58 |
|---|---|
| Airport | Birrfeld Airfield (LSZF) |
Arrival
| Time | N/A |
|---|---|
| Airport | Engadin Airport (LSZS) |
| Time | Latitude | Longitude | Altitude | Speed | Heading |
|---|---|---|---|---|---|
| 2026-05-05 15:02 | 47.44386 | 8.23033 | 1303 ft | 0 kts | 78° |
| 2026-05-05 15:14 | 47.44387 | 8.23040 | 1315 ft | 3 kts | 79° |
| 2026-05-05 15:14 | 47.44381 | 8.23051 | 1316 ft | 0 kts | 169° |
| 2026-05-05 15:55 | 47.44378 | 8.23052 | 1314 ft | 1 kts | 165° |
| 2026-05-05 15:55 | 47.44374 | 8.23103 | 1314 ft | 10 kts | 81° |
| 2026-05-05 15:55 | 47.44386 | 8.23212 | 1314 ft | 12 kts | 81° |
| 2026-05-05 15:55 | 47.44403 | 8.23356 | 1314 ft | 16 kts | 81° |
| 2026-05-05 15:56 | 47.44423 | 8.23533 | 1314 ft | 19 kts | 80° |
| 2026-05-05 15:56 | 47.44446 | 8.23725 | 1314 ft | 20 kts | 82° |
| 2026-05-05 15:56 | 47.44455 | 8.23842 | 1314 ft | 4 kts | 112° |
| 2026-05-05 15:56 | 47.44450 | 8.23853 | 1314 ft | 0 kts | 136° |
| 2026-05-05 15:57 | 47.44447 | 8.23857 | 1314 ft | 4 kts | 138° |
| 2026-05-05 15:57 | 47.44421 | 8.23849 | 1314 ft | 1 kts | 259° |
| 2026-05-05 15:57 | 47.44389 | 8.23581 | 1313 ft | 51 kts | 260° |
| 2026-05-05 15:57 | 47.44308 | 8.22953 | 1394 ft | 64 kts | 261° |
| 2026-05-05 15:58 | 47.44250 | 8.22331 | 1561 ft | 63 kts | 276° |
| 2026-05-05 15:58 | 47.44532 | 8.21895 | 1725 ft | 70 kts | 355° |
| 2026-05-05 15:58 | 47.44952 | 8.22259 | 1889 ft | 78 kts | 69° |
| 2026-05-05 15:58 | 47.45007 | 8.23094 | 2005 ft | 86 kts | 87° |
| 2026-05-05 15:59 | 47.45136 | 8.23937 | 2069 ft | 85 kts | 81° |
| 2026-05-05 15:59 | 47.45227 | 8.24796 | 2063 ft | 85 kts | 83° |
| 2026-05-05 15:59 | 47.45149 | 8.25627 | 1894 ft | 83 kts | 133° |
| 2026-05-05 15:59 | 47.44672 | 8.25872 | 1783 ft | 69 kts | 196° |
| 2026-05-05 16:00 | 47.44579 | 8.25325 | 1631 ft | 67 kts | 261° |
| 2026-05-05 16:00 | 47.44523 | 8.24684 | 1503 ft | 61 kts | 258° |
| 2026-05-05 16:00 | 47.44444 | 8.24063 | 1328 ft | 58 kts | 259° |
| 2026-05-05 16:00 | 47.44391 | 8.23598 | 1314 ft | 41 kts | 260° |
| 2026-05-05 16:01 | 47.44323 | 8.23024 | 1380 ft | 63 kts | 258° |
| 2026-05-05 16:01 | 47.44243 | 8.22400 | 1536 ft | 63 kts | 259° |
| 2026-05-05 16:01 | 47.44365 | 8.21797 | 1654 ft | 69 kts | 323° |
| 2026-05-05 16:01 | 47.44860 | 8.21862 | 1781 ft | 81 kts | 41° |
| 2026-05-05 16:02 | 47.45093 | 8.22598 | 2013 ft | 79 kts | 81° |
| 2026-05-05 16:02 | 47.45174 | 8.23393 | 2029 ft | 78 kts | 82° |
| 2026-05-05 16:02 | 47.45239 | 8.24191 | 2064 ft | 77 kts | 82° |
| 2026-05-05 16:02 | 47.45350 | 8.25001 | 2051 ft | 86 kts | 76° |
| 2026-05-05 16:03 | 47.45308 | 8.25819 | 1979 ft | 78 kts | 145° |
| 2026-05-05 16:03 | 47.44852 | 8.26022 | 1832 ft | 69 kts | 216° |
| 2026-05-05 16:03 | 47.44604 | 8.25515 | 1750 ft | 64 kts | 260° |
| 2026-05-05 16:03 | 47.44537 | 8.24844 | 1536 ft | 67 kts | 255° |
| 2026-05-05 16:04 | 47.44456 | 8.24184 | 1369 ft | 65 kts | 258° |
| 2026-05-05 16:04 | 47.44399 | 8.23665 | 1315 ft | 39 kts | 259° |
| 2026-05-05 16:04 | 47.44335 | 8.23142 | 1328 ft | 68 kts | 263° |
| 2026-05-05 16:04 | 47.44251 | 8.22446 | 1487 ft | 67 kts | 258° |
| 2026-05-05 16:05 | 47.44230 | 8.21789 | 1639 ft | 68 kts | 291° |
| 2026-05-05 16:05 | 47.44677 | 8.21631 | 1758 ft | 81 kts | 8° |
| 2026-05-05 16:05 | 47.45046 | 8.22192 | 1939 ft | 86 kts | 77° |
| 2026-05-05 16:05 | 47.45123 | 8.23130 | 1991 ft | 94 kts | 85° |
| 2026-05-05 16:06 | 47.45220 | 8.24088 | 2018 ft | 93 kts | 81° |
| 2026-05-05 16:06 | 47.45306 | 8.25069 | 2012 ft | 101 kts | 84° |
| 2026-05-05 16:06 | 47.45254 | 8.26054 | 2315 ft | 91 kts | 107° |
| 2026-05-05 16:06 | 47.44969 | 8.26873 | 2538 ft | 88 kts | 133° |
| 2026-05-05 16:07 | 47.44496 | 8.27417 | 2762 ft | 84 kts | 152° |
| 2026-05-05 16:07 | 47.44010 | 8.27903 | 2951 ft | 85 kts | 155° |
| 2026-05-05 16:07 | 47.43506 | 8.28304 | 3167 ft | 81 kts | 159° |
| 2026-05-05 16:07 | 47.42967 | 8.28687 | 3201 ft | 93 kts | 162° |
| 2026-05-05 16:08 | 47.42390 | 8.29073 | 3186 ft | 89 kts | 164° |
| 2026-05-05 16:08 | 47.41825 | 8.29449 | 3171 ft | 89 kts | 161° |
| 2026-05-05 16:08 | 47.41269 | 8.29868 | 3168 ft | 90 kts | 159° |
| 2026-05-05 16:08 | 47.40702 | 8.30267 | 3181 ft | 90 kts | 160° |
| 2026-05-05 16:09 | 47.40130 | 8.30645 | 3171 ft | 91 kts | 158° |
| 2026-05-05 16:09 | 47.39564 | 8.31025 | 3249 ft | 86 kts | 165° |
| 2026-05-05 16:09 | 47.39013 | 8.31366 | 3254 ft | 87 kts | 164° |
| 2026-05-05 16:09 | 47.38462 | 8.31721 | 3244 ft | 86 kts | 163° |
| 2026-05-05 16:10 | 47.37879 | 8.31974 | 3302 ft | 86 kts | 172° |
| 2026-05-05 16:10 | 47.37306 | 8.32199 | 3459 ft | 90 kts | 174° |
| 2026-05-05 16:10 | 47.36720 | 8.32424 | 3685 ft | 86 kts | 171° |
| 2026-05-05 16:10 | 47.36125 | 8.32642 | 3817 ft | 90 kts | 171° |
| 2026-05-05 16:11 | 47.35527 | 8.32863 | 4012 ft | 88 kts | 172° |
| 2026-05-05 16:11 | 47.33566 | 8.33416 | 4112 ft | 99 kts | 174° |
| 2026-05-05 16:12 | 47.32896 | 8.33597 | 4105 ft | 97 kts | 176° |
| 2026-05-05 16:12 | 47.31564 | 8.33857 | 4071 ft | 97 kts | 176° |
| 2026-05-05 16:13 | 47.29592 | 8.34180 | 4053 ft | 94 kts | 178° |
| 2026-05-05 16:13 | 47.28944 | 8.34295 | 4040 ft | 94 kts | 177° |
| 2026-05-05 16:13 | 47.28334 | 8.34576 | 4120 ft | 91 kts | 140° |
| 2026-05-05 16:14 | 47.27815 | 8.36298 | 4391 ft | 93 kts | 116° |
| 2026-05-05 16:14 | 47.27350 | 8.38010 | 4807 ft | 89 kts | 117° |
| 2026-05-05 16:15 | 47.26822 | 8.39930 | 4841 ft | 105 kts | 115° |
| 2026-05-05 16:15 | 47.25981 | 8.41597 | 4690 ft | 102 kts | 142° |
| 2026-05-05 16:16 | 47.26706 | 8.42741 | 4709 ft | 106 kts | 333° |
| 2026-05-05 16:16 | 47.27842 | 8.41352 | 4755 ft | 105 kts | 313° |
| 2026-05-05 16:17 | 47.28535 | 8.39504 | 4493 ft | 102 kts | 291° |
| 2026-05-05 16:17 | 47.28769 | 8.38547 | 4412 ft | 96 kts | 283° |
| 2026-05-05 16:18 | 47.29262 | 8.36768 | 4387 ft | 96 kts | 289° |
| 2026-05-05 16:18 | 47.29590 | 8.35907 | 4366 ft | 97 kts | 296° |
| 2026-05-05 16:18 | 47.30514 | 8.34467 | 4362 ft | 98 kts | 315° |
| 2026-05-05 16:19 | 47.31052 | 8.33871 | 4365 ft | 97 kts | 318° |
| 2026-05-05 16:19 | 47.31621 | 8.33302 | 4313 ft | 99 kts | 321° |
| 2026-05-05 16:19 | 47.32925 | 8.32368 | 3778 ft | 106 kts | 339° |
| 2026-05-05 16:20 | 47.34385 | 8.32397 | 3580 ft | 108 kts | 15° |
| 2026-05-05 16:20 | 47.35525 | 8.33806 | 3552 ft | 110 kts | 51° |
| 2026-05-05 16:21 | 47.36422 | 8.35690 | 3615 ft | 117 kts | 54° |
| 2026-05-05 16:22 | 47.37839 | 8.38688 | 3581 ft | 120 kts | 52° |
| 2026-05-05 16:22 | 47.38819 | 8.40660 | 3553 ft | 118 kts | 56° |
| 2026-05-05 16:23 | 47.39644 | 8.42771 | 3556 ft | 118 kts | 58° |
| 2026-05-05 16:23 | 47.40067 | 8.43791 | 3571 ft | 119 kts | 56° |
| 2026-05-05 16:23 | 47.40965 | 8.45836 | 3563 ft | 120 kts | 56° |
| 2026-05-05 16:24 | 47.41401 | 8.46870 | 3588 ft | 118 kts | 57° |
| 2026-05-05 16:24 | 47.41806 | 8.47924 | 3611 ft | 117 kts | 59° |
| 2026-05-05 16:24 | 47.42478 | 8.50131 | 3585 ft | 116 kts | 67° |
| 2026-05-05 16:25 | 47.42780 | 8.51250 | 3550 ft | 118 kts | 67° |
| 2026-05-05 16:25 | 47.43204 | 8.53566 | 3574 ft | 116 kts | 82° |
| 2026-05-05 16:25 | 47.43298 | 8.54733 | 3525 ft | 114 kts | 83° |
| 2026-05-05 16:26 | 47.43497 | 8.56915 | 3038 ft | 97 kts | 88° |
| 2026-05-05 16:26 | 47.43508 | 8.58851 | 2817 ft | 97 kts | 94° |
| 2026-05-05 16:27 | 47.43553 | 8.59835 | 2804 ft | 94 kts | 90° |
| 2026-05-05 16:27 | 47.43248 | 8.60603 | 2835 ft | 97 kts | 157° |
| 2026-05-05 16:27 | 47.42660 | 8.60406 | 2851 ft | 87 kts | 239° |
| 2026-05-05 16:27 | 47.42845 | 8.59621 | 2770 ft | 98 kts | 320° |
| 2026-05-05 16:28 | 47.43519 | 8.59650 | 2697 ft | 107 kts | 32° |
| 2026-05-05 16:28 | 47.43693 | 8.60601 | 2660 ft | 99 kts | 120° |
| 2026-05-05 16:28 | 47.43142 | 8.60887 | 2634 ft | 89 kts | 210° |
| 2026-05-05 16:28 | 47.43008 | 8.60115 | 2638 ft | 89 kts | 296° |
| 2026-05-05 16:29 | 47.43597 | 8.59831 | 2621 ft | 99 kts | 17° |
| 2026-05-05 16:29 | 47.43910 | 8.60663 | 2556 ft | 101 kts | 104° |
| 2026-05-05 16:29 | 47.43746 | 8.61683 | 2491 ft | 104 kts | 83° |
| 2026-05-05 16:29 | 47.44171 | 8.62343 | 2425 ft | 90 kts | 7° |
| 2026-05-05 16:30 | 47.44785 | 8.62291 | 2241 ft | 85 kts | 330° |
| 2026-05-05 16:30 | 47.45103 | 8.61654 | 2117 ft | 74 kts | 295° |
| 2026-05-05 16:30 | 47.45318 | 8.60979 | 2034 ft | 71 kts | 291° |
| 2026-05-05 16:30 | 47.45439 | 8.60269 | 1948 ft | 71 kts | 275° |
| 2026-05-05 16:31 | 47.45485 | 8.59541 | 1845 ft | 72 kts | 274° |
| 2026-05-05 16:31 | 47.45528 | 8.58827 | 1712 ft | 70 kts | 275° |
| 2026-05-05 16:31 | 47.45580 | 8.58143 | 1596 ft | 67 kts | 275° |
| 2026-05-05 16:31 | 47.45633 | 8.57457 | 1471 ft | 67 kts | 270° |
| 2026-05-05 16:32 | 47.45677 | 8.56819 | 1411 ft | 52 kts | 270° |
| 2026-05-05 16:32 | 47.45704 | 8.56407 | 1397 ft | 32 kts | 275° |
| 2026-05-05 16:32 | 47.45654 | 8.56273 | 1394 ft | 15 kts | 189° |
| 2026-05-05 16:32 | 47.45601 | 8.56388 | 1394 ft | 21 kts | 97° |
| 2026-05-05 16:33 | 47.45579 | 8.56665 | 1393 ft | 32 kts | 94° |
| 2026-05-05 16:33 | 47.45561 | 8.56953 | 1393 ft | 18 kts | 94° |
| 2026-05-05 16:33 | 47.45529 | 8.57126 | 1392 ft | 14 kts | 95° |
| 2026-05-05 16:33 | 47.45481 | 8.57202 | 1391 ft | 12 kts | 165° |
| 2026-05-05 16:34 | 47.45415 | 8.57255 | 1391 ft | 11 kts | 94° |
| 2026-05-05 16:34 | 47.45431 | 8.57296 | 1390 ft | 0 kts | 4° |